Ana Sayfa
METAR-TAF:

METAR-TAF

Havaalanları :

Siirt Havalimanı

Siirt, Türkiye

Enlem: 37-58-41N, Boylam: 41-50-21E, yükseklik: 610 m

Güncel hava durumu gözlemi

Rapor saat 12:50 UTC de 5 saat ve 20 dakika önce yapıldı.
Rüzgar güneybatıdan 5 kt
Sıcaklık 32°C
Nem 20%
Basınç 1016 hPa
Görüş mesafesi: 9000 m
4000 ft yükseklikte az bulutlu

METAR: LTCL 161250Z 23005KT 9000 FEW040 32/06 Q1016

Saat: 21:10 (18:10 UTC)

Tahmin

Rapor saat 13:40 UTC de 4 saat ve 30 dakika önce yapıldı.
Ayın 16'si saat 15 UTC'den ayın 16'si saat 24 UTC'ye kadar geçerli Tahmin
Rüzgar doğu/kuzeydoğudan 6 kt
Görüş mesafesi 10 km veya daha fazla
1500 m altında bulut yok ve kümülonimbus yok

TAF: LTCL 161340Z 1615/1624 06006KT CAVOK

4.000'den fazla havaalanı için hava durumu gözlemleri ve tahminleri (METAR ve TAF raporları).

Kullanılabilir istasyonlar harita üzerinde sarı ve kırmızı noktalarla gösterilir.

İstasyonun adını görmek için fareyi noktanın üzerinde gezdirin.

Sonrasında hava gözlem ve tahminlerini görmek için tıklayın.

Haritayı değiştirmek için: yaklaştırmak için siyah artı işaretli yeşil düğmeye ve uzaklaştırmak için de eksi işaretli düğmeye hızla tıklayın; bitişik haritalar için yeşil okları kullanın.


METAR-TAF: